Terminal Aerodrome Forecast
Issued by NWS

Home | Current Version | Previous Version | Text Only | Print | Product List | Glossary On
Versions: 1 2 3 4 5 6 7 8 9 10 11 12 13 14 15 16 17 18 19 20 21 22 23 24 25 26 27 28 29 30
877
FTUS43 KSGF 161732 AAB
TAFJLN
TAF AMD
KJLN 161732Z 1618/1718 21013KT P6SM BKN015
     FM170500 25010KT P6SM BKN015
     FM170800 28007KT 5SM BR OVC005
     FM171700 28006KT P6SM BKN010=

USA.gov is the U.S. government's official web portal to all federal, state and local government web resources and services.